createdAt,value
2023-04-07T00:02:01.915Z,53.21
2023-04-07T00:04:28.765Z,52.38
2023-04-07T00:06:55.756Z,54.21
2023-04-07T00:09:22.309Z,53.08
2023-04-07T00:11:48.789Z,53.67
2023-04-07T00:14:15.394Z,53.25
2023-04-07T00:16:41.887Z,52.96
2023-04-07T00:19:08.431Z,53.26
2023-04-07T00:21:34.931Z,53.45
2023-04-07T00:24:01.426Z,53.02
2023-04-07T00:26:31.450Z,53.38
2023-04-07T00:28:58.923Z,54.39
2023-04-07T00:31:25.983Z,54.06
2023-04-07T00:33:52.929Z,53.92
2023-04-07T00:36:19.958Z,53.29
2023-04-07T00:38:46.540Z,53.16
2023-04-07T00:41:13.310Z,54.29
2023-04-07T00:43:39.908Z,53.78
2023-04-07T00:46:06.499Z,54.46
2023-04-07T00:48:32.998Z,54.86
2023-04-07T00:50:59.480Z,54.66
2023-04-07T00:53:25.957Z,54.67
2023-04-07T00:55:52.557Z,54.60
2023-04-07T00:58:19.071Z,54.02
2023-04-07T01:01:05.858Z,54.62
2023-04-07T01:04:03.170Z,54.82
2023-04-07T01:06:33.806Z,53.84
2023-04-07T01:09:22.436Z,54.50
2023-04-07T01:12:00.027Z,54.34
2023-04-07T01:14:28.505Z,54.69
2023-04-07T01:16:58.132Z,55.03
2023-04-07T01:19:37.402Z,55.69
2023-04-07T01:22:11.724Z,56.27
2023-04-07T01:25:15.877Z,54.94
2023-04-07T01:27:57.638Z,55.73
2023-04-07T01:30:28.614Z,54.69
2023-04-07T01:32:56.528Z,54.68
2023-04-07T01:35:24.557Z,53.44
2023-04-07T01:37:51.546Z,54.85
2023-04-07T01:40:18.310Z,55.61
2023-04-07T01:42:45.866Z,54.54
2023-04-07T01:45:12.534Z,55.77
2023-04-07T01:47:39.508Z,55.12
2023-04-07T01:50:09.247Z,55.17
2023-04-07T01:52:36.582Z,55.49
2023-04-07T01:55:04.422Z,54.64
2023-04-07T01:57:30.934Z,56.19
2023-04-07T01:59:57.494Z,54.93
2023-04-07T02:02:24.289Z,55.19
2023-04-07T02:05:05.461Z,55.72
2023-04-07T02:07:52.847Z,55.81
2023-04-07T02:10:22.858Z,55.59
2023-04-07T02:12:49.669Z,54.85
2023-04-07T02:15:16.761Z,55.25
2023-04-07T02:17:46.657Z,55.49
2023-04-07T02:20:14.279Z,56.19
2023-04-07T02:22:41.457Z,56.03
2023-04-07T02:25:31.054Z,55.53
2023-04-07T02:27:58.832Z,55.11
2023-04-07T02:30:26.507Z,54.72
2023-04-07T02:32:53.593Z,55.00
2023-04-07T02:35:20.507Z,55.12
2023-04-07T02:37:47.466Z,55.86
2023-04-07T02:40:13.955Z,55.61
2023-04-07T02:42:40.789Z,56.49
2023-04-07T02:45:08.760Z,57.40
2023-04-07T02:47:35.988Z,55.89
2023-04-07T02:50:02.845Z,56.57
2023-04-07T02:52:29.344Z,57.23
2023-04-07T02:54:56.140Z,56.87
2023-04-07T02:57:22.735Z,56.85
2023-04-07T02:59:49.188Z,56.23
2023-04-07T03:02:15.995Z,57.00
2023-04-07T03:04:42.608Z,56.93
2023-04-07T03:07:09.125Z,55.28
2023-04-07T03:09:35.573Z,55.55
2023-04-07T03:12:02.396Z,55.52
2023-04-07T03:14:28.878Z,56.19
2023-04-07T03:16:56.555Z,55.83
2023-04-07T03:19:23.081Z,55.88
2023-04-07T03:21:49.604Z,56.13
2023-04-07T03:24:16.350Z,56.00
2023-04-07T03:26:42.930Z,55.52
2023-04-07T03:29:09.375Z,56.31
2023-04-07T03:31:37.696Z,56.68
2023-04-07T03:34:04.779Z,55.89
2023-04-07T03:36:34.122Z,55.88
2023-04-07T03:39:00.661Z,55.87
2023-04-07T03:41:27.176Z,55.64
2023-04-07T03:43:53.866Z,56.54
2023-04-07T03:46:21.420Z,56.65
2023-04-07T03:48:47.993Z,56.08
2023-04-07T03:51:15.714Z,56.74
2023-04-07T03:53:42.176Z,56.82
2023-04-07T03:56:08.750Z,57.35
2023-04-07T03:58:35.445Z,57.21
2023-04-07T04:01:01.904Z,57.35
2023-04-07T04:03:28.475Z,58.42
2023-04-07T04:05:55.002Z,58.23
2023-04-07T04:08:21.454Z,57.89
2023-04-07T04:10:47.919Z,57.85
2023-04-07T04:13:14.379Z,58.86
2023-04-07T04:15:41.004Z,57.45
2023-04-07T04:18:07.524Z,58.60
2023-04-07T04:20:34.417Z,57.81
2023-04-07T04:23:00.874Z,58.22
2023-04-07T04:25:27.369Z,59.71
2023-04-07T04:27:53.831Z,59.75
2023-04-07T04:30:20.670Z,58.86
2023-04-07T04:32:47.681Z,58.85
2023-04-07T04:35:14.184Z,59.13
2023-04-07T04:37:40.660Z,59.06
2023-04-07T04:40:08.642Z,58.65
2023-04-07T04:42:35.928Z,58.31
2023-04-07T04:45:02.426Z,58.65
2023-04-07T04:47:28.964Z,58.81
2023-04-07T04:49:55.430Z,58.37
2023-04-07T04:52:22.038Z,59.14
2023-04-07T04:54:48.543Z,58.68
2023-04-07T04:57:15.008Z,58.33
2023-04-07T04:59:42.514Z,59.42
2023-04-07T05:02:09.626Z,58.79
2023-04-07T05:04:36.824Z,58.45
2023-04-07T05:07:04.138Z,59.10
2023-04-07T05:09:31.172Z,59.06
2023-04-07T05:11:58.074Z,59.12
2023-04-07T05:14:24.552Z,58.86
2023-04-07T05:16:51.484Z,58.25
2023-04-07T05:19:17.921Z,58.60
2023-04-07T05:21:44.411Z,58.43
2023-04-07T05:24:10.844Z,59.00
2023-04-07T05:26:37.276Z,59.22
2023-04-07T05:29:03.722Z,58.70
2023-04-07T05:31:30.332Z,58.81
2023-04-07T05:33:56.827Z,59.81
2023-04-07T05:36:23.890Z,59.05
2023-04-07T05:38:50.642Z,59.26
2023-04-07T05:41:17.069Z,57.89
2023-04-07T05:43:43.609Z,59.28
2023-04-07T05:46:10.070Z,58.76
2023-04-07T05:48:36.632Z,59.46
2023-04-07T05:51:03.187Z,58.40
2023-04-07T05:53:29.650Z,59.50
2023-04-07T05:55:56.108Z,59.05
2023-04-07T05:58:22.575Z,57.84
2023-04-07T06:00:49.015Z,57.55
2023-04-07T06:03:15.606Z,58.49
2023-04-07T06:05:43.737Z,58.04
2023-04-07T06:08:11.113Z,57.23
2023-04-07T06:10:37.636Z,56.98
2023-04-07T06:13:04.116Z,55.56
2023-04-07T06:15:30.710Z,55.50
2023-04-07T06:17:57.381Z,54.51
2023-04-07T06:20:24.260Z,54.66
2023-04-07T06:22:50.762Z,54.18
2023-04-07T06:25:17.404Z,53.61
2023-04-07T06:27:43.856Z,53.65
2023-04-07T06:30:10.878Z,53.93
2023-04-07T06:32:37.768Z,54.74
2023-04-07T06:35:04.635Z,53.97
2023-04-07T06:37:31.122Z,53.96
2023-04-07T06:39:57.575Z,53.65
2023-04-07T06:42:24.064Z,53.25
2023-04-07T06:44:50.501Z,53.34
2023-04-07T06:47:16.939Z,53.12
2023-04-07T06:49:43.431Z,52.61
2023-04-07T06:52:09.893Z,52.29
2023-04-07T06:54:36.381Z,52.84
2023-04-07T06:57:02.916Z,52.94
2023-04-07T06:59:29.414Z,53.03
2023-04-07T07:01:55.996Z,52.45
2023-04-07T07:04:22.757Z,51.99
2023-04-07T07:06:49.363Z,52.09
2023-04-07T07:09:16.079Z,51.37
2023-04-07T07:11:42.529Z,51.34
2023-04-07T07:14:09.042Z,51.98
2023-04-07T07:16:35.506Z,50.99
2023-04-07T07:19:01.996Z,50.22
2023-04-07T07:21:28.431Z,49.18
2023-04-07T07:23:54.931Z,49.52
2023-04-07T07:26:21.374Z,48.27
2023-04-07T07:28:47.834Z,48.67
2023-04-07T07:31:15.658Z,48.98
2023-04-07T07:33:43.956Z,47.81
2023-04-07T07:36:10.785Z,47.51
2023-04-07T07:38:37.837Z,46.95
2023-04-07T07:41:11.366Z,46.65
2023-04-07T07:43:37.915Z,45.26
2023-04-07T07:46:04.556Z,45.13
2023-04-07T07:48:31.357Z,44.02
2023-04-07T07:50:57.941Z,45.13
2023-04-07T07:53:24.447Z,44.87
2023-04-07T07:55:51.024Z,46.43
2023-04-07T07:58:17.613Z,46.22
2023-04-07T08:00:44.099Z,45.68
2023-04-07T08:03:11.008Z,44.40
2023-04-07T08:05:37.817Z,46.00
2023-04-07T08:08:05.871Z,45.68
2023-04-07T08:10:32.385Z,45.33
2023-04-07T08:12:58.972Z,45.96
2023-04-07T08:15:25.598Z,45.63
2023-04-07T08:20:44.716Z,44.73
2023-04-07T08:23:11.224Z,44.63
2023-04-07T08:25:39.998Z,43.95
2023-04-07T08:30:59.159Z,44.17
2023-04-07T08:33:26.802Z,42.73
2023-04-07T08:36:19.908Z,43.90
2023-04-07T08:38:49.404Z,46.07
2023-04-07T08:41:24.918Z,45.23
2023-04-07T08:43:52.643Z,44.10
2023-04-07T08:46:27.522Z,44.18
2023-04-07T08:48:56.110Z,43.16
2023-04-07T08:51:35.398Z,45.00
2023-04-07T08:57:10.068Z,43.66
2023-04-07T08:59:36.903Z,43.96
2023-04-07T09:02:31.182Z,43.42
2023-04-07T09:05:34.966Z,43.45
2023-04-07T09:11:45.798Z,41.37
2023-04-07T09:14:12.780Z,41.46
2023-04-07T09:16:41.698Z,40.47
2023-04-07T09:21:50.934Z,40.62
2023-04-07T09:24:28.940Z,38.99
2023-04-07T09:27:19.356Z,38.96
2023-04-07T09:30:00.899Z,39.92
2023-04-07T09:32:42.283Z,39.73
2023-04-07T09:35:11.127Z,38.97
2023-04-07T09:40:28.270Z,39.29
2023-04-07T09:43:02.770Z,39.13
2023-04-07T09:45:35.404Z,40.14
2023-04-07T09:48:25.762Z,39.59
2023-04-07T09:51:23.127Z,39.40
2023-04-07T09:54:25.985Z,39.27
2023-04-07T09:59:45.176Z,39.44
2023-04-07T10:02:12.474Z,38.65
2023-04-07T10:04:40.959Z,37.63
2023-04-07T10:07:14.666Z,38.91
2023-04-07T10:09:42.889Z,39.13
2023-04-07T10:12:11.900Z,40.77
2023-04-07T10:14:40.298Z,39.89
2023-04-07T10:17:07.634Z,39.10
2023-04-07T10:19:34.734Z,38.96
2023-04-07T10:22:02.326Z,38.83
2023-04-07T10:24:52.838Z,38.10
2023-04-07T10:27:23.225Z,36.72
2023-04-07T10:29:51.572Z,37.36
2023-04-07T10:32:18.447Z,37.53
2023-04-07T10:34:51.048Z,38.47
2023-04-07T10:37:21.224Z,39.30
2023-04-07T10:39:49.063Z,39.61
2023-04-07T10:42:37.633Z,40.97
2023-04-07T10:45:09.298Z,41.17
2023-04-07T10:48:03.182Z,41.02
2023-04-07T10:50:30.414Z,40.61
2023-04-07T10:53:12.411Z,41.06
2023-04-07T10:55:46.832Z,41.27
2023-04-07T10:58:14.494Z,42.36
2023-04-07T11:00:48.442Z,42.77
2023-04-07T11:03:17.064Z,42.20
2023-04-07T11:05:44.315Z,42.79
2023-04-07T11:08:12.122Z,42.88
2023-04-07T11:10:39.710Z,41.59
2023-04-07T11:13:12.083Z,40.95
2023-04-07T11:15:41.025Z,40.79
2023-04-07T11:18:12.528Z,41.97
2023-04-07T11:20:46.011Z,42.36
2023-04-07T11:23:16.991Z,41.40
2023-04-07T11:25:56.025Z,41.57
2023-04-07T11:28:28.373Z,39.88
2023-04-07T11:30:58.057Z,38.70
2023-04-07T11:33:32.320Z,38.72
2023-04-07T11:36:06.444Z,39.48
2023-04-07T11:38:41.852Z,39.07
2023-04-07T11:41:13.818Z,39.94
2023-04-07T11:43:44.574Z,39.92
2023-04-07T11:46:18.439Z,39.75
2023-04-07T11:48:48.567Z,40.54
2023-04-07T11:51:28.432Z,42.08
2023-04-07T11:53:58.356Z,41.42
2023-04-07T11:56:26.525Z,40.60
2023-04-07T11:58:55.261Z,39.25
2023-04-07T12:01:24.711Z,38.55
2023-04-07T12:04:02.942Z,40.93
2023-04-07T12:06:30.981Z,39.88
2023-04-07T12:08:57.418Z,40.30
2023-04-07T12:11:25.113Z,39.82
2023-04-07T12:13:51.920Z,38.71
2023-04-07T12:16:19.300Z,39.83
2023-04-07T12:18:45.871Z,39.24
2023-04-07T12:21:12.413Z,39.95
2023-04-07T12:23:38.891Z,43.65
2023-04-07T12:26:05.410Z,42.18
2023-04-07T12:28:31.854Z,42.35
2023-04-07T12:30:58.898Z,41.63
2023-04-07T12:33:25.480Z,40.79
2023-04-07T12:35:52.219Z,40.19
2023-04-07T12:38:18.753Z,41.66
2023-04-07T12:40:45.397Z,41.66
2023-04-07T12:43:11.962Z,40.67
2023-04-07T12:45:38.483Z,41.05
2023-04-07T12:48:05.384Z,42.09
2023-04-07T12:50:31.899Z,41.13
2023-04-07T12:53:03.632Z,41.45
2023-04-07T12:55:33.359Z,41.65
2023-04-07T12:58:00.448Z,41.41
2023-04-07T13:00:27.027Z,42.99
2023-04-07T13:02:53.654Z,43.58
2023-04-07T13:05:20.214Z,42.43
2023-04-07T13:07:48.281Z,42.97
2023-04-07T13:10:16.178Z,41.80
2023-04-07T13:12:42.668Z,42.65
2023-04-07T13:15:09.213Z,42.78
2023-04-07T13:17:38.766Z,43.03
2023-04-07T13:20:06.507Z,43.03
2023-04-07T13:22:34.743Z,42.93
2023-04-07T13:25:02.437Z,43.92
2023-04-07T13:27:28.900Z,44.63
2023-04-07T13:29:55.785Z,45.03
2023-04-07T13:32:22.428Z,42.81
2023-04-07T13:34:48.928Z,45.29
2023-04-07T13:37:16.649Z,45.87
2023-04-07T13:39:43.101Z,46.10
2023-04-07T13:42:10.898Z,44.65
2023-04-07T13:44:40.130Z,44.47
2023-04-07T13:47:06.702Z,46.24
2023-04-07T13:49:33.170Z,45.93
2023-04-07T13:51:59.718Z,47.34
2023-04-07T13:54:29.395Z,46.20
2023-04-07T13:56:55.917Z,45.18
2023-04-07T13:59:42.279Z,44.14
2023-04-07T14:02:08.899Z,46.20
2023-04-07T14:04:35.613Z,47.03
2023-04-07T14:07:02.133Z,45.75
2023-04-07T14:09:28.695Z,47.31
2023-04-07T14:11:55.142Z,46.82
2023-04-07T14:14:21.653Z,45.63
2023-04-07T14:16:50.774Z,46.23
2023-04-07T14:19:17.446Z,46.19
2023-04-07T14:21:43.870Z,45.54
2023-04-07T14:24:10.631Z,47.72
2023-04-07T14:26:37.099Z,47.86
2023-04-07T14:29:03.918Z,48.51
2023-04-07T14:31:30.490Z,48.65
2023-04-07T14:33:58.103Z,49.70
2023-04-07T14:36:24.674Z,50.92
2023-04-07T14:38:51.507Z,52.69
2023-04-07T14:41:18.275Z,54.44
2023-04-07T14:43:44.748Z,54.58
2023-04-07T14:46:12.382Z,56.15
2023-04-07T14:48:39.279Z,56.68
2023-04-07T14:51:11.873Z,54.38
2023-04-07T14:53:38.680Z,54.24
2023-04-07T14:56:11.016Z,56.12
2023-04-07T14:58:39.099Z,58.41
2023-04-07T15:01:06.629Z,56.13
2023-04-07T15:03:34.932Z,59.08
2023-04-07T15:06:01.641Z,59.05
2023-04-07T15:08:28.113Z,58.84
2023-04-07T15:10:54.607Z,57.92
2023-04-07T15:13:21.136Z,60.02
2023-04-07T15:15:47.637Z,59.82
2023-04-07T15:18:14.387Z,59.80
2023-04-07T15:20:40.891Z,60.27
2023-04-07T15:23:08.209Z,61.83
2023-04-07T15:25:36.364Z,61.49
2023-04-07T15:28:10.236Z,62.63
2023-04-07T15:30:39.269Z,63.85
2023-04-07T15:33:11.303Z,62.83
2023-04-07T15:35:39.329Z,62.16
2023-04-07T15:38:07.882Z,63.59
2023-04-07T16:03:55.315Z,68.84
2023-04-07T16:06:22.925Z,68.36
2023-04-07T16:08:49.408Z,68.02
2023-04-07T16:11:15.878Z,68.96
2023-04-07T16:13:42.331Z,68.79
2023-04-07T16:16:11.426Z,68.76
2023-04-07T16:18:37.940Z,69.63
2023-04-07T16:21:07.733Z,69.63
2023-04-07T16:23:51.074Z,70.85
2023-04-07T16:26:17.755Z,70.81
2023-04-07T16:28:46.939Z,69.73
2023-04-07T16:31:14.213Z,69.08
2023-04-07T16:33:40.832Z,70.03
2023-04-07T16:36:07.442Z,71.09
2023-04-07T16:38:33.969Z,71.87
2023-04-07T16:41:04.330Z,71.89
2023-04-07T16:43:31.616Z,73.85
2023-04-07T16:46:00.382Z,72.22
2023-04-07T16:48:50.392Z,73.80
2023-04-07T16:51:37.096Z,74.27
2023-04-07T16:54:03.828Z,73.48
2023-04-07T16:56:32.049Z,73.98
2023-04-07T17:01:49.998Z,73.57
2023-04-07T17:04:17.867Z,71.92
2023-04-07T17:06:44.579Z,72.56
2023-04-07T17:09:15.946Z,72.82
2023-04-07T17:11:46.492Z,73.63
2023-04-07T17:14:16.134Z,73.09
2023-04-07T17:16:42.574Z,73.15
2023-04-07T17:21:49.651Z,75.54
2023-04-07T17:24:16.801Z,74.59
2023-04-07T17:26:44.325Z,73.67
2023-04-07T17:29:10.802Z,74.86
2023-04-07T17:31:37.399Z,75.67
2023-04-07T17:34:04.001Z,76.44
2023-04-07T17:36:33.948Z,76.97
2023-04-07T17:39:01.415Z,77.11
2023-04-07T17:41:28.405Z,77.41
2023-04-07T17:43:55.076Z,77.77
2023-04-07T17:46:23.178Z,79.23
2023-04-07T17:48:50.783Z,77.70
2023-04-07T17:51:17.477Z,79.25
2023-04-07T17:53:44.097Z,79.42
2023-04-07T17:56:10.618Z,77.65
2023-04-07T17:58:37.099Z,79.32
2023-04-07T18:01:04.231Z,80.00
2023-04-07T18:03:30.827Z,79.96
2023-04-07T18:05:57.404Z,78.63
2023-04-07T18:08:24.977Z,80.13
2023-04-07T18:10:52.281Z,78.63
2023-04-07T18:13:18.757Z,78.95
2023-04-07T18:15:45.391Z,80.21
2023-04-07T18:18:12.294Z,80.93
2023-04-07T18:20:38.793Z,80.79
2023-04-07T18:23:05.542Z,79.53
2023-04-07T18:25:32.151Z,77.95
2023-04-07T18:27:59.000Z,78.87
2023-04-07T18:30:25.525Z,78.71
2023-04-07T18:32:52.018Z,78.77
2023-04-07T18:35:18.679Z,78.84
2023-04-07T18:37:45.197Z,78.61
2023-04-07T18:40:12.194Z,78.70
2023-04-07T18:42:38.745Z,78.77
2023-04-07T18:45:06.276Z,77.38
2023-04-07T18:47:32.854Z,77.65
2023-04-07T18:49:59.335Z,77.28
2023-04-07T18:52:26.608Z,77.30
2023-04-07T18:54:53.153Z,78.43
2023-04-07T18:57:19.685Z,77.23
2023-04-07T18:59:46.165Z,77.05
2023-04-07T19:02:12.826Z,76.49
2023-04-07T19:04:39.689Z,76.62
2023-04-07T19:07:06.310Z,78.75
2023-04-07T19:09:33.332Z,77.03
2023-04-07T19:11:59.849Z,77.52
2023-04-07T19:14:26.443Z,77.87
2023-04-07T19:16:53.051Z,77.59
2023-04-07T19:19:19.586Z,77.70
2023-04-07T19:21:46.289Z,76.63
2023-04-07T19:24:12.744Z,77.30
2023-04-07T19:26:39.293Z,79.41
2023-04-07T19:29:05.880Z,79.76
2023-04-07T19:31:32.386Z,78.00
2023-04-07T19:33:59.129Z,77.24
2023-04-07T19:36:26.499Z,78.04
2023-04-07T19:38:53.061Z,79.42
2023-04-07T19:41:19.573Z,78.93
2023-04-07T19:43:46.082Z,79.26
2023-04-07T19:46:12.650Z,77.07
2023-04-07T19:48:40.063Z,77.09
2023-04-07T19:51:07.497Z,76.99
2023-04-07T19:53:34.176Z,78.32
2023-04-07T19:56:02.216Z,79.86
2023-04-07T19:58:28.678Z,79.24
2023-04-07T20:00:55.452Z,79.87
2023-04-07T20:03:22.727Z,77.54
2023-04-07T20:05:49.660Z,78.77
2023-04-07T20:08:16.454Z,79.52
2023-04-07T20:10:42.942Z,81.04
2023-04-07T20:13:09.695Z,81.52
2023-04-07T20:15:36.677Z,78.59
2023-04-07T20:18:03.786Z,79.48
2023-04-07T20:20:30.344Z,80.32
2023-04-07T20:22:56.799Z,80.70
2023-04-07T20:25:23.451Z,80.36
2023-04-07T20:27:50.405Z,79.55
2023-04-07T20:30:17.019Z,80.62
2023-04-07T20:32:43.879Z,81.70
2023-04-07T20:35:12.014Z,84.53
2023-04-07T20:37:38.632Z,83.26
2023-04-07T20:40:06.149Z,82.15
2023-04-07T20:42:32.678Z,83.68
2023-04-07T20:45:03.766Z,84.01
2023-04-07T20:47:31.320Z,82.01
2023-04-07T20:49:58.785Z,82.43
2023-04-07T20:52:27.061Z,83.63
2023-04-07T20:54:53.609Z,84.06
2023-04-07T20:57:20.085Z,84.32
2023-04-07T20:59:46.519Z,82.26
2023-04-07T21:02:13.142Z,83.47
2023-04-07T21:04:39.993Z,85.32
2023-04-07T21:07:06.537Z,84.28
2023-04-07T21:09:32.997Z,82.54
2023-04-07T21:12:02.004Z,83.58
2023-04-07T21:14:30.622Z,82.14
2023-04-07T21:16:57.162Z,83.41
2023-04-07T21:19:28.788Z,83.84
2023-04-07T21:21:55.314Z,82.97
2023-04-07T21:24:21.924Z,84.29
2023-04-07T21:26:48.413Z,85.26
2023-04-07T21:29:14.895Z,83.74
2023-04-07T21:31:41.854Z,84.62
2023-04-07T21:34:08.398Z,85.39
2023-04-07T21:36:34.898Z,84.24
2023-04-07T21:39:01.339Z,83.36
2023-04-07T21:41:27.831Z,84.99
2023-04-07T21:43:54.326Z,82.44
2023-04-07T21:46:20.952Z,82.88
2023-04-07T21:48:49.105Z,82.56
2023-04-07T21:51:37.435Z,81.44
2023-04-07T21:54:03.958Z,81.79
2023-04-07T21:56:39.603Z,83.89
2023-04-07T21:59:06.343Z,82.93
2023-04-07T22:01:45.979Z,84.10
2023-04-07T22:04:18.523Z,84.24
2023-04-07T22:10:21.749Z,83.82
2023-04-07T22:15:28.894Z,84.57
2023-04-07T22:21:27.582Z,83.01
2023-04-07T22:24:25.373Z,81.71
2023-04-07T22:26:55.501Z,82.34
2023-04-07T22:29:25.012Z,83.31
2023-04-07T22:31:51.646Z,83.05
2023-04-07T22:34:18.524Z,84.10
2023-04-07T22:36:45.531Z,82.68
2023-04-07T22:39:33.288Z,82.45
2023-04-07T22:41:59.824Z,83.01
2023-04-07T22:44:26.976Z,81.81
2023-04-07T22:46:53.591Z,82.46
2023-04-07T22:49:20.453Z,81.97
2023-04-07T22:51:50.648Z,80.55
2023-04-07T22:54:17.776Z,81.24
2023-04-07T22:56:44.700Z,81.33
2023-04-07T22:59:11.250Z,80.47
2023-04-07T23:01:38.721Z,81.65
2023-04-07T23:04:05.395Z,80.45
2023-04-07T23:06:32.232Z,81.51
2023-04-07T23:08:58.774Z,80.73
2023-04-07T23:11:25.480Z,82.26
2023-04-07T23:13:52.292Z,83.57
2023-04-07T23:16:21.552Z,82.51
2023-04-07T23:18:48.213Z,82.87
2023-04-07T23:24:17.082Z,80.89
2023-04-07T23:26:50.320Z,81.03
2023-04-07T23:29:17.737Z,81.49
2023-04-07T23:31:44.327Z,82.80
2023-04-07T23:34:11.120Z,82.53
2023-04-07T23:37:01.241Z,81.25
2023-04-07T23:39:27.947Z,82.12
2023-04-07T23:41:54.620Z,82.12
2023-04-07T23:47:09.939Z,80.80
2023-04-07T23:49:42.465Z,81.31
2023-04-07T23:52:21.468Z,81.63
2023-04-07T23:54:48.022Z,81.48
2023-04-07T23:57:14.611Z,83.54
2023-04-07T23:59:42.130Z,81.90
